createdAt,value
2023-03-29T00:02:30.537Z,98840.53
2023-03-29T00:04:57.762Z,98844.91
2023-03-29T00:07:26.466Z,98841.69
2023-03-29T00:09:53.384Z,98851.34
2023-03-29T00:12:20.519Z,98851.72
2023-03-29T00:14:47.927Z,98861.16
2023-03-29T00:17:14.881Z,98850.69
2023-03-29T00:19:43.615Z,98847.00
2023-03-29T00:22:10.929Z,98856.00
2023-03-29T00:24:39.349Z,98848.84
2023-03-29T00:27:06.443Z,98840.72
2023-03-29T00:29:33.765Z,98848.03
2023-03-29T00:32:00.916Z,98847.19
2023-03-29T00:34:30.984Z,98846.84
2023-03-29T00:36:58.184Z,98855.16
2023-03-29T00:39:26.529Z,98848.16
2023-03-29T00:41:56.828Z,98852.44
2023-03-29T00:44:55.910Z,98852.88
2023-03-29T00:47:26.551Z,98866.91
2023-03-29T00:49:55.179Z,98867.63
2023-03-29T00:52:22.761Z,98862.56
2023-03-29T00:54:56.093Z,98861.28
2023-03-29T00:57:29.185Z,98862.66
2023-03-29T00:59:57.117Z,98858.66
2023-03-29T01:02:28.248Z,98872.56
2023-03-29T01:05:05.491Z,98866.03
2023-03-29T01:07:38.149Z,98871.69
2023-03-29T01:10:10.948Z,98874.84
2023-03-29T01:12:43.703Z,98868.63
2023-03-29T01:15:13.021Z,98878.75
2023-03-29T01:17:43.671Z,98870.66
2023-03-29T01:20:19.236Z,98871.44
2023-03-29T01:23:14.093Z,98877.47
2023-03-29T01:25:49.006Z,98873.47
2023-03-29T01:28:21.299Z,98875.50
2023-03-29T01:30:51.902Z,98872.97
2023-03-29T01:33:23.573Z,98874.47
2023-03-29T01:36:01.567Z,98881.41
2023-03-29T01:38:32.071Z,98869.81
2023-03-29T01:40:59.218Z,98871.03
2023-03-29T01:43:34.422Z,98878.41
2023-03-29T01:46:07.538Z,98873.63
2023-03-29T01:48:42.743Z,98872.31
2023-03-29T01:51:14.482Z,98870.72
2023-03-29T01:53:46.297Z,98879.66
2023-03-29T01:56:16.379Z,98868.25
2023-03-29T01:58:49.128Z,98883.69
2023-03-29T02:01:21.361Z,98885.44
2023-03-29T02:03:51.300Z,98873.72
2023-03-29T02:06:22.570Z,98872.13
2023-03-29T02:08:51.305Z,98875.06
2023-03-29T02:11:19.666Z,98868.56
2023-03-29T02:13:48.105Z,98882.16
2023-03-29T02:16:15.950Z,98875.66
2023-03-29T02:18:45.250Z,98888.84
2023-03-29T02:21:16.530Z,98897.50
2023-03-29T02:23:46.708Z,98899.34
2023-03-29T02:26:14.524Z,98888.56
2023-03-29T02:28:42.350Z,98889.66
2023-03-29T02:31:15.570Z,98893.53
2023-03-29T02:33:48.161Z,98891.41
2023-03-29T02:36:18.978Z,98898.06
2023-03-29T02:38:46.371Z,98893.28
2023-03-29T02:41:17.840Z,98904.19
2023-03-29T02:43:47.665Z,98903.28
2023-03-29T02:46:17.722Z,98905.00
2023-03-29T02:48:48.459Z,98909.09
2023-03-29T02:51:20.348Z,98910.03
2023-03-29T02:53:52.057Z,98904.72
2023-03-29T02:56:19.678Z,98904.72
2023-03-29T02:58:46.597Z,98904.84
2023-03-29T03:01:15.648Z,98906.56
2023-03-29T03:03:42.982Z,98910.56
2023-03-29T03:06:10.153Z,98911.00
2023-03-29T03:08:37.533Z,98911.13
2023-03-29T03:11:04.783Z,98921.22
2023-03-29T03:13:32.193Z,98918.03
2023-03-29T03:15:59.229Z,98913.25
2023-03-29T03:18:27.745Z,98911.66
2023-03-29T03:20:56.281Z,98931.88
2023-03-29T03:23:25.023Z,98934.53
2023-03-29T03:25:52.860Z,98934.66
2023-03-29T03:28:22.174Z,98935.63
2023-03-29T03:30:49.666Z,98945.59
2023-03-29T03:33:35.829Z,98943.31
2023-03-29T03:36:31.433Z,98952.38
2023-03-29T03:38:59.030Z,98952.91
2023-03-29T03:41:26.395Z,98954.34
2023-03-29T03:43:54.024Z,98965.13
2023-03-29T03:46:21.675Z,98964.97
2023-03-29T03:48:50.723Z,98974.19
2023-03-29T03:51:26.480Z,98982.28
2023-03-29T03:53:53.405Z,98976.94
2023-03-29T03:56:53.024Z,98984.16
2023-03-29T03:59:34.097Z,98988.13
2023-03-29T04:02:06.805Z,98988.91
2023-03-29T04:04:37.654Z,98994.91
2023-03-29T04:07:09.674Z,98995.84
2023-03-29T04:09:47.562Z,98997.06
2023-03-29T04:12:23.924Z,98995.19
2023-03-29T04:14:51.397Z,98995.19
2023-03-29T04:17:22.458Z,98992.13
2023-03-29T04:20:06.865Z,98995.06
2023-03-29T04:22:34.177Z,99001.06
2023-03-29T04:25:01.213Z,99000.13
2023-03-29T04:27:57.183Z,99004.78
2023-03-29T04:30:40.425Z,99005.56
2023-03-29T04:33:36.423Z,99012.75
2023-03-29T04:36:06.356Z,99008.09
2023-03-29T04:38:36.195Z,99009.28
2023-03-29T04:41:05.018Z,99017.25
2023-03-29T04:43:53.688Z,99022.44
2023-03-29T04:46:28.290Z,99020.97
2023-03-29T04:49:14.402Z,99031.56
2023-03-29T04:51:47.861Z,99031.44
2023-03-29T04:54:18.610Z,99031.41
2023-03-29T04:57:14.722Z,99041.91
2023-03-29T05:00:15.327Z,99037.16
2023-03-29T05:03:17.213Z,99046.81
2023-03-29T05:05:53.479Z,99036.84
2023-03-29T05:08:22.791Z,99040.13
2023-03-29T05:11:10.396Z,99040.69
2023-03-29T05:13:38.043Z,99045.84
2023-03-29T05:16:09.233Z,99043.63
2023-03-29T05:18:39.562Z,99047.19
2023-03-29T05:21:07.664Z,99051.41
2023-03-29T05:23:38.322Z,99060.88
2023-03-29T05:26:08.053Z,99067.44
2023-03-29T05:28:35.263Z,99053.50
2023-03-29T05:31:06.026Z,99061.56
2023-03-29T05:33:35.548Z,99069.94
2023-03-29T05:36:08.011Z,99064.13
2023-03-29T05:38:39.817Z,99070.38
2023-03-29T05:41:07.798Z,99071.03
2023-03-29T05:43:35.234Z,99073.91
2023-03-29T05:46:03.584Z,99077.25
2023-03-29T05:48:32.837Z,99079.81
2023-03-29T05:51:00.601Z,99085.53
2023-03-29T05:53:28.371Z,99081.38
2023-03-29T05:55:56.713Z,99085.66
2023-03-29T05:58:28.512Z,99081.66
2023-03-29T06:00:55.618Z,99081.91
2023-03-29T06:03:36.950Z,99089.28
2023-03-29T06:06:04.995Z,99083.00
2023-03-29T06:08:35.149Z,99087.66
2023-03-29T06:11:24.462Z,99083.69
2023-03-29T06:14:13.878Z,99083.78
2023-03-29T06:16:50.589Z,99092.56
2023-03-29T06:19:18.792Z,99082.44
2023-03-29T06:21:47.516Z,99086.06
2023-03-29T06:24:19.424Z,99087.78
2023-03-29T06:26:53.743Z,99088.34
2023-03-29T06:29:20.884Z,99094.50
2023-03-29T06:31:50.981Z,99091.97
2023-03-29T06:34:38.570Z,99095.13
2023-03-29T06:37:30.055Z,99096.72
2023-03-29T06:40:09.400Z,99101.06
2023-03-29T06:42:44.674Z,99099.84
2023-03-29T06:45:33.673Z,99093.16
2023-03-29T06:48:04.681Z,99102.16
2023-03-29T06:50:32.410Z,99113.41
2023-03-29T06:53:15.648Z,99107.75
2023-03-29T06:55:44.759Z,99109.94
2023-03-29T06:58:31.439Z,99107.03
2023-03-29T07:01:04.561Z,99098.78
2023-03-29T07:04:00.231Z,99107.25
2023-03-29T07:06:33.752Z,99101.09
2023-03-29T07:09:02.409Z,99106.91
2023-03-29T07:11:44.784Z,99102.31
2023-03-29T07:14:20.946Z,99111.56
2023-03-29T07:16:48.838Z,99107.72
2023-03-29T07:19:27.253Z,99103.81
2023-03-29T07:22:05.176Z,99104.94
2023-03-29T07:24:45.290Z,99106.72
2023-03-29T07:27:13.096Z,99113.44
2023-03-29T07:29:41.468Z,99110.31
2023-03-29T07:32:08.873Z,99111.03
2023-03-29T07:34:42.171Z,99109.97
2023-03-29T07:37:14.101Z,99114.56
2023-03-29T07:39:43.051Z,99104.81
2023-03-29T07:42:28.926Z,99109.63
2023-03-29T07:44:58.627Z,99103.66
2023-03-29T07:47:30.629Z,99109.00
2023-03-29T07:49:59.194Z,99113.53
2023-03-29T07:52:28.608Z,99106.31
2023-03-29T07:54:55.793Z,99102.63
2023-03-29T07:57:45.813Z,99097.31
2023-03-29T08:00:16.302Z,99100.13
2023-03-29T08:02:53.535Z,99095.50
2023-03-29T08:05:37.868Z,99104.69
2023-03-29T08:08:11.354Z,99103.03
2023-03-29T08:11:06.436Z,99103.09
2023-03-29T08:13:43.528Z,99099.38
2023-03-29T08:16:30.389Z,99101.16
2023-03-29T08:19:08.311Z,99103.19
2023-03-29T08:21:49.267Z,99084.72
2023-03-29T08:24:19.739Z,99090.69
2023-03-29T08:26:50.873Z,99086.22
2023-03-29T08:29:20.111Z,99087.25
2023-03-29T08:31:49.274Z,99076.00
2023-03-29T08:34:16.297Z,99080.41
2023-03-29T08:37:12.444Z,99084.00
2023-03-29T08:39:43.500Z,99075.91
2023-03-29T08:43:26.467Z,99076.84
2023-03-29T08:46:22.367Z,99074.38
2023-03-29T08:48:56.878Z,99072.69
2023-03-29T08:51:29.459Z,99070.31
2023-03-29T08:53:59.932Z,99071.72
2023-03-29T08:56:36.097Z,99064.72
2023-03-29T08:59:20.665Z,99076.09
2023-03-29T09:01:50.043Z,99071.81
2023-03-29T09:04:23.511Z,99073.72
2023-03-29T09:07:02.697Z,99075.34
2023-03-29T09:09:36.102Z,99067.63
2023-03-29T09:12:22.948Z,99075.97
2023-03-29T09:15:09.111Z,99055.91
2023-03-29T09:17:49.575Z,99063.06
2023-03-29T09:20:30.060Z,99063.50
2023-03-29T09:23:12.497Z,99063.88
2023-03-29T09:26:05.648Z,99052.44
2023-03-29T09:28:59.624Z,99051.31
2023-03-29T09:31:29.734Z,99053.41
2023-03-29T09:33:59.413Z,99056.03
2023-03-29T09:36:48.788Z,99058.72
2023-03-29T09:39:16.773Z,99062.97
2023-03-29T09:41:51.689Z,99058.50
2023-03-29T09:44:30.769Z,99053.16
2023-03-29T09:47:07.699Z,99052.25
2023-03-29T09:49:40.171Z,99054.72
2023-03-29T09:52:13.031Z,99052.63
2023-03-29T09:54:44.464Z,99054.03
2023-03-29T09:57:38.220Z,99063.31
2023-03-29T10:00:10.746Z,99052.56
2023-03-29T10:02:40.995Z,99054.38
2023-03-29T10:05:16.397Z,99046.75
2023-03-29T10:07:50.918Z,99058.06
2023-03-29T10:10:23.915Z,99060.16
2023-03-29T10:12:53.160Z,99060.63
2023-03-29T10:15:29.378Z,99069.03
2023-03-29T10:18:01.072Z,99099.94
2023-03-29T10:20:28.171Z,99117.44
2023-03-29T10:22:58.633Z,99138.72
2023-03-29T10:25:28.849Z,99159.09
2023-03-29T10:28:03.004Z,99168.97
2023-03-29T10:30:35.087Z,99172.34
2023-03-29T10:33:02.516Z,99165.09
2023-03-29T10:35:31.968Z,99147.53
2023-03-29T10:38:04.698Z,99136.13
2023-03-29T10:40:33.878Z,99134.66
2023-03-29T10:43:11.009Z,99146.69
2023-03-29T10:45:39.388Z,99139.41
2023-03-29T10:48:07.857Z,99139.84
2023-03-29T10:50:38.202Z,99132.19
2023-03-29T10:53:14.532Z,99120.31
2023-03-29T10:55:51.754Z,99105.25
2023-03-29T10:58:31.891Z,99104.28
2023-03-29T11:00:59.133Z,99108.19
2023-03-29T11:03:42.672Z,99112.66
2023-03-29T11:06:18.397Z,99105.91
2023-03-29T11:08:54.412Z,99144.84
2023-03-29T11:11:41.284Z,99117.66
2023-03-29T11:14:16.877Z,99112.91
2023-03-29T11:16:52.842Z,99115.16
2023-03-29T11:19:37.528Z,99106.84
2023-03-29T11:22:10.370Z,99102.19
2023-03-29T11:24:54.859Z,99087.34
2023-03-29T11:27:33.417Z,99077.88
2023-03-29T11:30:07.601Z,99096.28
2023-03-29T11:32:42.029Z,99095.13
2023-03-29T11:35:27.166Z,99078.09
2023-03-29T11:38:01.563Z,99067.25
2023-03-29T11:40:45.146Z,99057.91
2023-03-29T11:43:17.191Z,99060.56
2023-03-29T11:45:55.028Z,99048.59
2023-03-29T11:48:27.579Z,99066.97
2023-03-29T11:50:58.794Z,99076.97
2023-03-29T11:53:31.621Z,99071.16
2023-03-29T11:56:08.716Z,99105.53
2023-03-29T11:58:39.401Z,99090.22
2023-03-29T12:01:10.768Z,99088.44
2023-03-29T12:03:44.752Z,99070.03
2023-03-29T12:06:21.394Z,99071.88
2023-03-29T12:08:53.600Z,99069.25
2023-03-29T12:11:27.375Z,99043.56
2023-03-29T12:13:58.770Z,99044.34
2023-03-29T12:16:32.413Z,99062.03
2023-03-29T12:19:04.526Z,99069.31
2023-03-29T12:21:34.369Z,99104.84
2023-03-29T12:24:02.666Z,99095.56
2023-03-29T12:26:54.216Z,99079.22
2023-03-29T12:29:35.811Z,99060.69
2023-03-29T12:32:19.442Z,99056.88
2023-03-29T12:35:11.687Z,99055.81
2023-03-29T12:38:19.266Z,99039.72
2023-03-29T12:41:12.140Z,99069.22
2023-03-29T12:44:04.265Z,99056.31
2023-03-29T12:46:37.053Z,99050.84
2023-03-29T12:49:11.581Z,99052.16
2023-03-29T12:51:42.026Z,99045.41
2023-03-29T12:54:14.626Z,99054.94
2023-03-29T12:56:54.636Z,99048.97
2023-03-29T12:59:36.012Z,99035.38
2023-03-29T13:02:24.468Z,99040.41
2023-03-29T13:04:53.832Z,99030.41
2023-03-29T13:07:31.167Z,99031.28
2023-03-29T13:09:59.487Z,99031.06
2023-03-29T13:12:30.207Z,99044.34
2023-03-29T13:15:01.805Z,99037.47
2023-03-29T13:17:37.082Z,99042.81
2023-03-29T13:20:18.606Z,99033.88
2023-03-29T13:22:57.979Z,99039.16
2023-03-29T13:25:38.695Z,99031.13
2023-03-29T13:28:13.325Z,99026.81
2023-03-29T13:30:50.182Z,99030.31
2023-03-29T13:33:49.846Z,99016.75
2023-03-29T13:36:33.021Z,99024.44
2023-03-29T13:39:05.385Z,99032.41
2023-03-29T13:41:44.505Z,99040.09
2023-03-29T13:44:26.054Z,99038.72
2023-03-29T13:47:13.841Z,99035.00
2023-03-29T13:49:43.170Z,99028.25
2023-03-29T13:52:16.386Z,99035.56
2023-03-29T13:54:50.115Z,99034.31
2023-03-29T13:57:20.661Z,99031.72
2023-03-29T13:59:54.684Z,99032.78
2023-03-29T14:02:32.841Z,99035.88
2023-03-29T14:05:02.348Z,99028.31
2023-03-29T14:07:33.651Z,99025.50
2023-03-29T14:10:01.492Z,99030.25
2023-03-29T14:12:34.245Z,99029.66
2023-03-29T14:15:04.922Z,99033.66
2023-03-29T14:17:36.443Z,99041.28
2023-03-29T14:20:09.165Z,99044.84
2023-03-29T14:22:37.734Z,99041.97
2023-03-29T14:25:13.451Z,99033.78
2023-03-29T14:27:41.790Z,99041.22
2023-03-29T14:30:26.138Z,99037.03
2023-03-29T14:32:55.060Z,99037.31
2023-03-29T14:35:28.671Z,99037.41
2023-03-29T14:37:56.641Z,99047.19
2023-03-29T14:40:24.492Z,99040.69
2023-03-29T14:42:51.838Z,99029.81
2023-03-29T14:45:23.366Z,99034.94
2023-03-29T14:47:51.641Z,99042.63
2023-03-29T14:50:25.216Z,99039.13
2023-03-29T14:52:53.175Z,99044.22
2023-03-29T14:55:23.848Z,99034.94
2023-03-29T14:57:53.992Z,99028.19
2023-03-29T15:00:26.867Z,99040.88
2023-03-29T15:02:56.824Z,99045.56
2023-03-29T15:05:37.578Z,99048.06
2023-03-29T15:08:07.341Z,99044.03
2023-03-29T15:10:36.703Z,99044.69
2023-03-29T15:13:05.271Z,99052.47
2023-03-29T15:15:34.899Z,99057.59
2023-03-29T15:18:03.262Z,99049.13
2023-03-29T15:20:35.627Z,99066.69
2023-03-29T15:23:07.871Z,99062.78
2023-03-29T15:25:36.633Z,99064.28
2023-03-29T15:28:04.070Z,99071.09
2023-03-29T15:30:34.980Z,99065.75
2023-03-29T15:33:21.967Z,99070.22
2023-03-29T15:35:53.967Z,99073.06
2023-03-29T15:38:25.389Z,99074.28
2023-03-29T15:41:01.407Z,99072.88
2023-03-29T15:43:28.497Z,99078.78
2023-03-29T15:45:55.478Z,99075.63
2023-03-29T15:48:25.172Z,99079.13
2023-03-29T15:50:54.664Z,99080.75
2023-03-29T15:53:23.636Z,99076.75
2023-03-29T15:55:55.786Z,99089.72
2023-03-29T15:58:25.797Z,99083.72
2023-03-29T16:00:56.780Z,99090.00
2023-03-29T16:03:24.581Z,99083.31
2023-03-29T16:05:54.309Z,99080.69
2023-03-29T16:08:21.392Z,99080.84
2023-03-29T16:10:49.244Z,99090.63
2023-03-29T16:13:16.233Z,99090.56
2023-03-29T16:15:43.431Z,99100.50
2023-03-29T16:18:10.955Z,99097.88
2023-03-29T16:20:38.381Z,99105.53
2023-03-29T16:23:11.649Z,99105.25
2023-03-29T16:25:40.058Z,99105.00
2023-03-29T16:28:09.118Z,99112.31
2023-03-29T16:30:37.535Z,99107.25
2023-03-29T16:33:08.375Z,99113.38
2023-03-29T16:35:37.935Z,99110.28
2023-03-29T16:38:07.013Z,99114.94
2023-03-29T16:40:34.487Z,99114.81
2023-03-29T16:43:02.728Z,99116.81
2023-03-29T16:45:29.728Z,99109.69
2023-03-29T16:47:57.026Z,99113.53
2023-03-29T16:50:24.269Z,99125.38
2023-03-29T16:52:54.060Z,99123.53
2023-03-29T16:55:22.457Z,99126.28
2023-03-29T16:57:51.239Z,99134.06
2023-03-29T17:00:20.333Z,99137.94
2023-03-29T17:02:51.035Z,99139.44
2023-03-29T17:05:19.042Z,99139.66
2023-03-29T17:07:46.888Z,99142.53
2023-03-29T17:10:14.466Z,99143.38
2023-03-29T17:12:42.785Z,99142.59
2023-03-29T17:15:10.461Z,99150.16
2023-03-29T17:17:37.889Z,99153.34
2023-03-29T17:20:08.755Z,99154.78
2023-03-29T17:22:35.995Z,99155.56
2023-03-29T17:25:03.902Z,99163.56
2023-03-29T17:27:31.161Z,99169.59
2023-03-29T17:29:59.516Z,99171.50
2023-03-29T17:32:27.111Z,99169.59
2023-03-29T17:34:54.131Z,99175.47
2023-03-29T17:37:24.080Z,99181.47
2023-03-29T17:39:51.265Z,99182.91
2023-03-29T17:42:19.017Z,99177.34
2023-03-29T17:44:45.919Z,99184.47
2023-03-29T17:47:14.194Z,99190.84
2023-03-29T17:49:41.387Z,99197.50
2023-03-29T17:52:08.471Z,99202.44
2023-03-29T17:54:35.767Z,99204.78
2023-03-29T17:57:02.767Z,99204.44
2023-03-29T17:59:29.721Z,99203.13
2023-03-29T18:01:57.427Z,99213.28
2023-03-29T18:04:26.016Z,99208.31
2023-03-29T18:06:53.379Z,99220.97
2023-03-29T18:09:20.307Z,99227.00
2023-03-29T18:11:47.237Z,99227.38
2023-03-29T18:14:14.314Z,99228.66
2023-03-29T18:16:41.706Z,99241.22
2023-03-29T18:19:10.675Z,99235.94
2023-03-29T18:21:39.036Z,99253.06
2023-03-29T18:24:06.359Z,99256.25
2023-03-29T18:26:33.543Z,99256.25
2023-03-29T18:29:00.749Z,99266.72
2023-03-29T18:31:28.185Z,99269.19
2023-03-29T18:33:55.336Z,99273.75
2023-03-29T18:36:22.544Z,99279.34
2023-03-29T18:38:53.592Z,99276.63
2023-03-29T18:41:20.639Z,99292.69
2023-03-29T18:43:47.822Z,99291.25
2023-03-29T18:46:15.125Z,99295.16
2023-03-29T18:48:42.393Z,99305.06
2023-03-29T18:51:11.379Z,99305.38
2023-03-29T18:53:39.246Z,99305.13
2023-03-29T18:56:08.258Z,99300.19
2023-03-29T18:58:35.307Z,99304.66
2023-03-29T19:01:04.235Z,99316.53
2023-03-29T19:03:31.610Z,99317.47
2023-03-29T19:05:58.771Z,99314.00
2023-03-29T19:08:26.342Z,99321.59
2023-03-29T19:10:54.153Z,99319.34
2023-03-29T19:13:22.482Z,99318.03
2023-03-29T19:15:51.350Z,99322.84
2023-03-29T19:18:18.266Z,99316.94
2023-03-29T19:20:45.589Z,99318.84
2023-03-29T19:23:12.654Z,99330.38
2023-03-29T19:25:39.632Z,99324.09
2023-03-29T19:28:06.582Z,99321.06
2023-03-29T19:30:36.012Z,99317.97
2023-03-29T19:33:03.118Z,99322.84
2023-03-29T19:35:30.081Z,99330.59
2023-03-29T19:37:57.050Z,99329.78
2023-03-29T19:40:24.348Z,99328.31
2023-03-29T19:42:51.314Z,99337.56
2023-03-29T19:45:18.333Z,99340.25
2023-03-29T19:47:47.825Z,99340.38
2023-03-29T19:50:14.796Z,99338.13
2023-03-29T19:52:42.030Z,99341.59
2023-03-29T19:55:10.464Z,99339.50
2023-03-29T19:57:37.665Z,99340.59
2023-03-29T20:00:08.144Z,99342.31
2023-03-29T20:02:39.375Z,99345.13
2023-03-29T20:05:09.394Z,99344.47
2023-03-29T20:07:36.702Z,99346.06
2023-03-29T20:10:03.977Z,99343.53
2023-03-29T20:12:30.964Z,99345.69
2023-03-29T20:14:58.131Z,99345.28
2023-03-29T20:17:25.232Z,99340.34
2023-03-29T20:19:53.939Z,99345.84
2023-03-29T20:22:26.016Z,99341.06
2023-03-29T20:24:53.198Z,99349.59
2023-03-29T20:27:21.450Z,99342.25
2023-03-29T20:29:48.942Z,99345.59
2023-03-29T20:32:16.281Z,99340.38
2023-03-29T20:34:43.200Z,99342.41
2023-03-29T20:37:10.620Z,99345.22
2023-03-29T20:39:39.060Z,99352.81
2023-03-29T20:42:06.540Z,99344.97
2023-03-29T20:44:35.222Z,99351.38
2023-03-29T20:47:03.446Z,99352.00
2023-03-29T20:49:37.029Z,99353.09
2023-03-29T20:52:08.091Z,99359.22
2023-03-29T20:54:35.209Z,99354.16
2023-03-29T20:57:03.981Z,99354.16
2023-03-29T20:59:31.317Z,99358.16
2023-03-29T21:02:00.193Z,99360.66
2023-03-29T21:04:27.782Z,99353.84
2023-03-29T21:06:56.169Z,99349.31
2023-03-29T21:09:24.081Z,99348.22
2023-03-29T21:11:52.424Z,99359.81
2023-03-29T21:14:21.285Z,99347.28
2023-03-29T21:16:48.817Z,99346.38
2023-03-29T21:19:16.740Z,99350.50
2023-03-29T21:21:45.002Z,99343.72
2023-03-29T21:24:13.820Z,99344.63
2023-03-29T21:26:41.194Z,99346.38
2023-03-29T21:29:08.196Z,99357.56
2023-03-29T21:31:36.648Z,99357.00
2023-03-29T21:34:03.615Z,99358.31
2023-03-29T21:36:30.592Z,99361.09
2023-03-29T21:38:57.673Z,99362.03
2023-03-29T21:41:24.626Z,99358.81
2023-03-29T21:43:51.597Z,99358.16
2023-03-29T21:46:18.811Z,99359.19
2023-03-29T21:48:47.134Z,99359.44
2023-03-29T21:51:14.342Z,99366.25
2023-03-29T21:53:41.507Z,99355.59
2023-03-29T21:56:09.089Z,99351.06
2023-03-29T21:58:36.068Z,99362.88
2023-03-29T22:01:05.107Z,99371.75
2023-03-29T22:03:32.287Z,99371.22
2023-03-29T22:06:03.213Z,99373.44
2023-03-29T22:08:30.821Z,99381.72
2023-03-29T22:10:57.928Z,99369.84
2023-03-29T22:13:26.971Z,99371.47
2023-03-29T22:15:58.733Z,99376.91
2023-03-29T22:18:26.312Z,99378.19
2023-03-29T22:20:53.859Z,99379.09
2023-03-29T22:23:23.049Z,99376.03
2023-03-29T22:25:49.960Z,99374.31
2023-03-29T22:28:16.993Z,99376.28
2023-03-29T22:30:44.241Z,99376.53
2023-03-29T22:33:11.208Z,99379.97
2023-03-29T22:35:38.142Z,99380.09
2023-03-29T22:38:05.103Z,99369.31
2023-03-29T22:40:33.510Z,99378.88
2023-03-29T22:43:01.668Z,99369.50
2023-03-29T22:45:29.601Z,99371.03
2023-03-29T22:47:56.662Z,99365.97
2023-03-29T22:50:23.604Z,99375.03
2023-03-29T22:52:50.529Z,99372.63
2023-03-29T22:55:17.570Z,99373.41
2023-03-29T22:57:46.078Z,99379.94
2023-03-29T23:00:13.773Z,99381.69
2023-03-29T23:02:40.868Z,99371.72
2023-03-29T23:05:08.732Z,99385.63
2023-03-29T23:07:36.698Z,99397.00
2023-03-29T23:10:05.334Z,99388.75
2023-03-29T23:12:32.491Z,99390.34
2023-03-29T23:15:00.782Z,99395.38
2023-03-29T23:17:27.994Z,99398.19
2023-03-29T23:19:54.945Z,99386.03
2023-03-29T23:22:22.642Z,99391.56
2023-03-29T23:24:49.774Z,99393.66
2023-03-29T23:27:16.694Z,99388.25
2023-03-29T23:29:45.197Z,99391.81
2023-03-29T23:32:14.202Z,99380.38
2023-03-29T23:34:41.356Z,99388.41
2023-03-29T23:37:08.329Z,99386.47
2023-03-29T23:39:35.730Z,99395.31
2023-03-29T23:42:03.486Z,99393.00
2023-03-29T23:44:30.631Z,99390.97
2023-03-29T23:46:57.639Z,99392.09
2023-03-29T23:49:26.002Z,99387.56
2023-03-29T23:51:52.956Z,99385.25
2023-03-29T23:54:19.927Z,99390.75
2023-03-29T23:56:46.876Z,99391.69
2023-03-29T23:59:13.804Z,99397.06
